createdAt,value
2022-12-09T00:02:49.688Z,17.13
2022-12-09T00:07:56.085Z,16.75
2022-12-09T00:12:59.982Z,16.48
2022-12-09T00:18:03.564Z,16.27
2022-12-09T00:23:08.374Z,15.35
2022-12-09T00:28:12.315Z,16.58
2022-12-09T00:33:15.987Z,17.17
2022-12-09T00:38:23.346Z,16.10
2022-12-09T00:43:27.167Z,17.13
2022-12-09T00:48:31.229Z,18.25
2022-12-09T00:53:36.314Z,18.02
2022-12-09T00:58:40.030Z,20.02
2022-12-09T01:03:44.293Z,19.42
2022-12-09T01:08:50.754Z,18.27
2022-12-09T01:13:57.700Z,15.77
2022-12-09T01:19:03.154Z,15.38
2022-12-09T01:24:10.869Z,17.15
2022-12-09T01:29:14.830Z,15.65
2022-12-09T01:34:18.718Z,15.90
2022-12-09T01:39:23.513Z,15.07
2022-12-09T01:44:27.979Z,15.95
2022-12-09T01:49:35.666Z,15.48
2022-12-09T01:54:42.680Z,16.35
2022-12-09T01:59:46.670Z,16.95
2022-12-09T02:04:51.708Z,15.55
2022-12-09T02:09:56.605Z,14.60
2022-12-09T02:15:04.633Z,14.75
2022-12-09T02:20:16.828Z,14.63
2022-12-09T02:25:29.037Z,14.82
2022-12-09T02:30:38.455Z,15.32
2022-12-09T02:35:49.839Z,14.40
2022-12-09T02:40:59.117Z,14.25
2022-12-09T02:46:04.238Z,12.82
2022-12-09T02:51:13.553Z,14.23
2022-12-09T02:56:18.652Z,15.18
2022-12-09T03:01:24.278Z,14.63
2022-12-09T03:06:36.172Z,14.65
2022-12-09T03:11:41.450Z,13.57
2022-12-09T03:16:51.898Z,14.38
2022-12-09T03:21:59.824Z,14.32
2022-12-09T03:27:09.146Z,14.23
2022-12-09T03:32:16.344Z,14.63
2022-12-09T03:37:22.523Z,14.50
2022-12-09T03:42:37.026Z,13.88
2022-12-09T03:47:40.900Z,14.38
2022-12-09T03:52:51.086Z,13.73
2022-12-09T03:57:57.613Z,14.57
2022-12-09T04:03:02.102Z,20.40
2022-12-09T04:08:08.234Z,44.95
2022-12-09T04:13:12.487Z,47.90
2022-12-09T04:18:16.238Z,41.08
2022-12-09T04:23:21.635Z,25.88
2022-12-09T04:28:24.996Z,24.80
2022-12-09T04:33:28.890Z,27.38
2022-12-09T04:38:33.893Z,26.63
2022-12-09T04:43:39.518Z,24.90
2022-12-09T04:48:43.326Z,22.65
2022-12-09T04:53:48.729Z,19.73
2022-12-09T04:58:52.622Z,18.85
2022-12-09T05:03:56.862Z,18.13
2022-12-09T05:09:02.758Z,17.65
2022-12-09T05:14:06.679Z,18.00
2022-12-09T05:19:11.350Z,18.30
2022-12-09T05:24:16.705Z,18.33
2022-12-09T05:29:23.113Z,16.65
2022-12-09T05:34:27.486Z,17.50
2022-12-09T05:39:32.760Z,18.98
2022-12-09T05:44:36.850Z,20.48
2022-12-09T05:49:40.800Z,18.42
2022-12-09T05:54:46.031Z,17.85
2022-12-09T05:59:51.965Z,18.40
2022-12-09T06:04:56.152Z,19.98
2022-12-09T06:10:02.138Z,16.70
2022-12-09T06:15:09.815Z,18.75
2022-12-09T06:20:15.701Z,17.35
2022-12-09T06:25:21.590Z,17.42
2022-12-09T06:30:25.290Z,21.13
2022-12-09T06:35:29.297Z,21.27
2022-12-09T06:40:34.178Z,21.13
2022-12-09T06:45:38.377Z,22.38
2022-12-09T06:50:42.795Z,21.35
2022-12-09T06:55:48.785Z,20.23
2022-12-09T07:00:52.496Z,22.27
2022-12-09T07:05:56.563Z,19.90
2022-12-09T07:11:02.728Z,22.38
2022-12-09T07:16:07.080Z,19.42
2022-12-09T07:21:12.613Z,22.00
2022-12-09T07:26:18.369Z,26.40
2022-12-09T07:31:25.192Z,34.70
2022-12-09T07:36:30.459Z,32.38
2022-12-09T07:41:35.981Z,32.10
2022-12-09T07:46:40.855Z,32.50
2022-12-09T07:51:45.237Z,33.08
2022-12-09T07:56:50.191Z,38.00
2022-12-09T08:01:54.258Z,36.28
2022-12-09T08:06:57.887Z,35.22
2022-12-09T08:12:02.899Z,32.67
2022-12-09T08:17:06.552Z,29.88
2022-12-09T08:22:10.113Z,30.67
2022-12-09T08:27:15.510Z,29.48
2022-12-09T08:32:19.439Z,28.30
2022-12-09T08:37:23.049Z,26.88
2022-12-09T08:42:31.218Z,26.63
2022-12-09T08:47:34.805Z,24.33
2022-12-09T08:52:40.693Z,24.40
2022-12-09T08:57:46.497Z,27.35
2022-12-09T09:02:50.403Z,26.92
2022-12-09T09:07:54.457Z,24.38
2022-12-09T09:13:00.267Z,27.50
2022-12-09T09:18:03.854Z,28.00
2022-12-09T09:23:07.659Z,29.50
2022-12-09T09:28:13.000Z,32.47
2022-12-09T09:33:17.838Z,31.35
2022-12-09T09:38:21.909Z,26.80
2022-12-09T09:43:29.098Z,28.38
2022-12-09T09:48:35.075Z,25.65
2022-12-09T09:53:39.067Z,22.75
2022-12-09T09:58:50.319Z,19.33
2022-12-09T10:04:01.682Z,17.48
2022-12-09T10:09:11.526Z,18.23
2022-12-09T10:14:22.553Z,18.75
2022-12-09T10:19:31.997Z,19.05
2022-12-09T10:24:40.516Z,22.83
2022-12-09T10:29:56.659Z,23.63
2022-12-09T10:35:01.200Z,21.27
2022-12-09T10:40:20.400Z,21.23
2022-12-09T10:45:29.268Z,21.20
2022-12-09T10:50:43.833Z,21.92
2022-12-09T10:55:55.523Z,20.55
2022-12-09T11:01:07.239Z,20.90
2022-12-09T11:06:22.187Z,20.02
2022-12-09T11:11:45.384Z,20.73
2022-12-09T11:16:51.946Z,19.05
2022-12-09T11:22:16.090Z,17.35
2022-12-09T11:27:27.388Z,15.20
2022-12-09T11:32:33.123Z,17.40
2022-12-09T11:37:40.088Z,14.93
2022-12-09T11:42:50.723Z,12.98
2022-12-09T11:53:31.125Z,14.98
2022-12-09T11:58:40.711Z,15.45
2022-12-09T12:03:48.838Z,15.77
2022-12-09T12:09:00.137Z,14.90
2022-12-09T12:14:07.678Z,14.30
2022-12-09T12:19:18.717Z,15.65
2022-12-09T12:25:00.175Z,16.38
2022-12-09T12:30:07.685Z,17.35
2022-12-09T12:35:26.864Z,16.52
2022-12-09T12:40:38.807Z,17.20
2022-12-09T12:46:09.533Z,17.52
2022-12-09T12:51:25.667Z,15.90
2022-12-09T12:56:35.476Z,16.52
2022-12-09T13:01:51.965Z,15.60
2022-12-09T13:07:02.998Z,15.90
2022-12-09T13:12:12.750Z,16.40
2022-12-09T13:17:16.259Z,16.73
2022-12-09T13:22:23.734Z,15.80
2022-12-09T13:27:34.712Z,16.30
2022-12-09T13:33:02.612Z,17.48
2022-12-09T13:38:26.770Z,14.73
2022-12-09T13:43:33.845Z,15.80
2022-12-09T13:48:48.683Z,15.20
2022-12-09T13:54:02.407Z,15.38
2022-12-09T13:59:37.966Z,15.77
2022-12-09T14:04:51.715Z,15.65
2022-12-09T14:09:58.557Z,17.92
2022-12-09T14:15:03.176Z,18.30
2022-12-09T14:20:19.574Z,18.90
2022-12-09T14:25:59.415Z,17.95
2022-12-09T14:31:08.384Z,17.88
2022-12-09T14:36:27.663Z,18.15
2022-12-09T14:41:38.093Z,18.10
2022-12-09T14:46:43.516Z,18.55
2022-12-09T14:51:49.992Z,18.98
2022-12-09T14:56:58.717Z,18.58
2022-12-09T15:02:04.266Z,17.13
2022-12-09T15:07:13.181Z,17.42
2022-12-09T15:12:18.721Z,18.20
2022-12-09T15:17:26.053Z,18.42
2022-12-09T15:22:32.913Z,19.27
2022-12-09T15:27:37.700Z,19.92
2022-12-09T15:32:41.253Z,18.70
2022-12-09T15:37:45.682Z,17.88
2022-12-09T15:42:54.196Z,19.23
2022-12-09T15:48:02.702Z,18.08
2022-12-09T15:53:14.743Z,18.27
2022-12-09T15:58:27.190Z,18.20
2022-12-09T16:03:33.377Z,20.92
2022-12-09T16:08:39.128Z,19.75
2022-12-09T16:13:59.298Z,19.13
2022-12-09T16:19:02.701Z,23.15
2022-12-09T16:24:13.128Z,22.70
2022-12-09T16:29:25.178Z,25.88
2022-12-09T16:34:29.158Z,24.42
2022-12-09T16:39:35.111Z,26.58
2022-12-09T16:44:40.601Z,25.42
2022-12-09T16:49:47.144Z,26.23
2022-12-09T16:54:51.266Z,26.83
2022-12-09T16:59:56.032Z,25.70
2022-12-09T17:05:00.555Z,29.17
2022-12-09T17:10:04.025Z,25.63
2022-12-09T17:15:10.797Z,25.90
2022-12-09T17:20:14.712Z,26.38
2022-12-09T17:25:18.632Z,28.88
2022-12-09T17:30:23.539Z,28.05
2022-12-09T17:35:27.521Z,27.95
2022-12-09T17:40:30.919Z,28.42
2022-12-09T17:45:41.939Z,28.05
2022-12-09T17:50:46.267Z,29.50
2022-12-09T17:55:49.654Z,28.45
2022-12-09T18:00:54.511Z,28.00
2022-12-09T18:05:59.774Z,29.63
2022-12-09T18:11:04.732Z,29.67
2022-12-09T18:16:11.803Z,29.20
2022-12-09T18:21:16.211Z,29.52
2022-12-09T18:26:23.466Z,32.08
2022-12-09T18:31:30.635Z,30.63
2022-12-09T18:36:34.181Z,30.15
2022-12-09T18:41:37.534Z,30.58
2022-12-09T18:46:45.990Z,30.83
2022-12-09T18:51:51.179Z,30.42
2022-12-09T18:56:55.720Z,33.30
2022-12-09T19:02:00.533Z,31.40
2022-12-09T19:07:03.912Z,30.83
2022-12-09T19:12:44.782Z,30.05
2022-12-09T19:17:33.358Z,32.80
2022-12-09T19:22:36.773Z,31.88
2022-12-09T19:27:40.896Z,33.10
2022-12-09T19:32:53.724Z,32.42
2022-12-09T19:38:01.239Z,31.23
2022-12-09T19:43:05.370Z,31.95
2022-12-09T19:48:10.433Z,31.25
2022-12-09T19:53:13.940Z,32.28
2022-12-09T19:58:17.776Z,35.40
2022-12-09T20:03:22.662Z,34.53
2022-12-09T20:08:26.246Z,33.50
2022-12-09T20:13:31.967Z,33.65
2022-12-09T20:18:37.737Z,35.70
2022-12-09T20:23:42.871Z,33.60
2022-12-09T20:28:48.551Z,31.25
2022-12-09T20:33:56.177Z,33.10
2022-12-09T20:39:01.984Z,34.88
2022-12-09T20:44:05.891Z,33.60
2022-12-09T20:49:11.123Z,35.03
2022-12-09T20:54:14.813Z,33.50
2022-12-09T20:59:18.343Z,37.25
2022-12-09T21:04:23.360Z,35.25
2022-12-09T21:09:29.149Z,39.22
2022-12-09T21:14:36.111Z,36.25
2022-12-09T21:19:41.164Z,38.40
2022-12-09T21:24:44.591Z,38.85
2022-12-09T21:29:48.597Z,37.47
2022-12-09T21:34:55.508Z,37.55
2022-12-09T21:39:58.897Z,38.72
2022-12-09T21:45:02.489Z,40.80
2022-12-09T21:50:08.771Z,38.92
2022-12-09T21:55:12.308Z,41.50
2022-12-09T22:00:16.776Z,41.05
2022-12-09T22:05:22.040Z,40.80
2022-12-09T22:10:25.688Z,39.05
2022-12-09T22:15:29.527Z,39.45
2022-12-09T22:25:59.589Z,39.03
2022-12-09T22:31:03.262Z,38.50
2022-12-09T22:36:11.360Z,39.72
2022-12-09T22:41:16.428Z,37.75
2022-12-09T22:46:22.715Z,40.20
2022-12-09T22:51:29.798Z,37.97
2022-12-09T22:56:33.469Z,36.85
2022-12-09T23:01:38.457Z,37.17
2022-12-09T23:06:44.017Z,35.67
2022-12-09T23:11:48.210Z,39.28
2022-12-09T23:16:51.624Z,35.83
2022-12-09T23:21:56.425Z,38.83
2022-12-09T23:26:59.888Z,36.08
2022-12-09T23:32:03.471Z,37.92
2022-12-09T23:37:08.237Z,39.40
2022-12-09T23:42:11.613Z,38.13
2022-12-09T23:47:15.215Z,37.03
2022-12-09T23:52:20.002Z,40.15
2022-12-09T23:57:23.418Z,38.75
